sensor_id;sensor_type;location;lat;lon;timestamp;pressure;altitude;pressure_sealevel;temperature;humidity
22096;BME280;24083;55.670;37.568;2022-12-17T00:02:36;99970.97;;;-1.08;nan
22096;BME280;24083;55.670;37.568;2022-12-17T00:05:23;99976.13;;;-1.03;nan
22096;BME280;24083;55.670;37.568;2022-12-17T00:08:11;99973.66;;;-0.97;nan
22096;BME280;24083;55.670;37.568;2022-12-17T00:11:07;99963.38;;;-1.02;nan
22096;BME280;24083;55.670;37.568;2022-12-17T00:13:52;99959.19;;;-0.95;nan
22096;BME280;24083;55.670;37.568;2022-12-17T00:16:39;99952.28;;;-1.02;nan
22096;BME280;24083;55.670;37.568;2022-12-17T00:19:23;99947.19;;;-0.99;nan
22096;BME280;24083;55.670;37.568;2022-12-17T00:22:08;99936.16;;;-0.95;nan
22096;BME280;24083;55.670;37.568;2022-12-17T00:25:04;99934.47;;;-0.93;nan
22096;BME280;24083;55.670;37.568;2022-12-17T00:27:49;99931.09;;;-0.89;nan
22096;BME280;24083;55.670;37.568;2022-12-17T00:30:39;99931.06;;;-0.94;nan
22096;BME280;24083;55.670;37.568;2022-12-17T00:33:55;99920.06;;;-0.85;nan
22096;BME280;24083;55.670;37.568;2022-12-17T00:36:52;99916.69;;;-0.81;nan
22096;BME280;24083;55.670;37.568;2022-12-17T00:40:15;99900.50;;;-0.80;nan
22096;BME280;24083;55.670;37.568;2022-12-17T00:43:12;99886.00;;;-0.78;nan
22096;BME280;24083;55.670;37.568;2022-12-17T00:46:22;99885.97;;;-0.82;nan
22096;BME280;24083;55.670;37.568;2022-12-17T00:49:06;99874.06;;;-0.80;nan
22096;BME280;24083;55.670;37.568;2022-12-17T00:51:50;99867.19;;;-0.83;nan
22096;BME280;24083;55.670;37.568;2022-12-17T00:54:41;99873.19;;;-0.81;nan
22096;BME280;24083;55.670;37.568;2022-12-17T00:57:26;99867.19;;;-0.83;nan
22096;BME280;24083;55.670;37.568;2022-12-17T01:00:13;99871.41;;;-0.85;nan
22096;BME280;24083;55.670;37.568;2022-12-17T01:06:33;99867.19;;;-0.83;nan
22096;BME280;24083;55.670;37.568;2022-12-17T01:10:10;99867.19;;;-0.83;nan
22096;BME280;24083;55.670;37.568;2022-12-17T01:13:05;99881.59;;;-0.93;nan
22096;BME280;24083;55.670;37.568;2022-12-17T01:16:56;99870.50;;;-0.90;nan
22096;BME280;24083;55.670;37.568;2022-12-17T01:19:42;99870.53;;;-0.87;nan
22096;BME280;24083;55.670;37.568;2022-12-17T01:22:27;99866.31;;;-0.86;nan
22096;BME280;24083;55.670;37.568;2022-12-17T01:25:11;99877.41;;;-0.83;nan
22096;BME280;24083;55.670;37.568;2022-12-17T01:31:32;99877.34;;;-0.89;nan
22096;BME280;24083;55.670;37.568;2022-12-17T01:34:32;99869.66;;;-0.91;nan
22096;BME280;24083;55.670;37.568;2022-12-17T01:37:17;99865.34;;;-0.93;nan
22096;BME280;24083;55.670;37.568;2022-12-17T01:40:01;99853.38;;;-0.97;nan
22096;BME280;24083;55.670;37.568;2022-12-17T01:42:48;99850.78;;;-1.00;nan
22096;BME280;24083;55.670;37.568;2022-12-17T01:45:42;99861.88;;;-0.98;nan
22096;BME280;24083;55.670;37.568;2022-12-17T01:48:46;99848.19;;;-1.03;nan
22096;BME280;24083;55.670;37.568;2022-12-17T01:52:24;99846.38;;;-1.14;nan
22096;BME280;24083;55.670;37.568;2022-12-17T02:00:08;99840.50;;;-1.07;nan
22096;BME280;24083;55.670;37.568;2022-12-17T02:02:54;99835.38;;;-1.05;nan
22096;BME280;24083;55.670;37.568;2022-12-17T02:06:10;99832.81;;;-1.03;nan
22096;BME280;24083;55.670;37.568;2022-12-17T02:13:20;99828.66;;;-0.97;nan
22096;BME280;24083;55.670;37.568;2022-12-17T02:16:14;99826.97;;;-0.95;nan
22096;BME280;24083;55.670;37.568;2022-12-17T02:23:40;99805.53;;;-1.01;nan
22096;BME280;24083;55.670;37.568;2022-12-17T02:26:50;99803.84;;;-1.02;nan
22096;BME280;24083;55.670;37.568;2022-12-17T02:29:43;99798.69;;;-1.06;nan
22096;BME280;24083;55.670;37.568;2022-12-17T02:32:36;99796.97;;;-1.10;nan
22096;BME280;24083;55.670;37.568;2022-12-17T02:39:06;99795.25;;;-1.11;nan
22096;BME280;24083;55.670;37.568;2022-12-17T02:42:05;99794.38;;;-1.11;nan
22096;BME280;24083;55.670;37.568;2022-12-17T02:45:00;99779.88;;;-1.11;nan
22096;BME280;24083;55.670;37.568;2022-12-17T02:47:47;99768.78;;;-1.13;nan
22096;BME280;24083;55.670;37.568;2022-12-17T02:50:41;99764.53;;;-1.09;nan
22096;BME280;24083;55.670;37.568;2022-12-17T02:53:49;99760.25;;;-1.10;nan
22096;BME280;24083;55.670;37.568;2022-12-17T02:56:40;99744.03;;;-1.14;nan
22096;BME280;24083;55.670;37.568;2022-12-17T03:00:09;99735.53;;;-1.13;nan
22096;BME280;24083;55.670;37.568;2022-12-17T03:03:44;99740.59;;;-1.16;nan
22096;BME280;24083;55.670;37.568;2022-12-17T03:06:28;99737.22;;;-1.15;nan
22096;BME280;24083;55.670;37.568;2022-12-17T03:09:13;99738.84;;;-1.20;nan
22096;BME280;24083;55.670;37.568;2022-12-17T03:11:57;99742.28;;;-1.18;nan
22096;BME280;24083;55.670;37.568;2022-12-17T03:14:41;99752.53;;;-1.18;nan
22096;BME280;24083;55.670;37.568;2022-12-17T03:17:29;99746.56;;;-1.17;nan
22096;BME280;24083;55.670;37.568;2022-12-17T03:20:20;99742.28;;;-1.18;nan
22096;BME280;24083;55.670;37.568;2022-12-17T03:23:35;99740.56;;;-1.19;nan
22096;BME280;24083;55.670;37.568;2022-12-17T03:30:01;99716.63;;;-1.27;nan
22096;BME280;24083;55.670;37.568;2022-12-17T03:34:01;99699.59;;;-1.25;nan
22096;BME280;24083;55.670;37.568;2022-12-17T03:36:55;99706.34;;;-1.30;nan
22096;BME280;24083;55.670;37.568;2022-12-17T03:39:44;99702.94;;;-1.29;nan
22096;BME280;24083;55.670;37.568;2022-12-17T03:42:41;99702.09;;;-1.28;nan
22096;BME280;24083;55.670;37.568;2022-12-17T03:45:26;99700.38;;;-1.32;nan
22096;BME280;24083;55.670;37.568;2022-12-17T03:48:20;99704.66;;;-1.28;nan
22096;BME280;24083;55.670;37.568;2022-12-17T03:51:48;99684.22;;;-1.25;nan
22096;BME280;24083;55.670;37.568;2022-12-17T03:59:13;99681.69;;;-1.22;nan
22096;BME280;24083;55.670;37.568;2022-12-17T04:02:02;99685.09;;;-1.22;nan
22096;BME280;24083;55.670;37.568;2022-12-17T04:04:53;99689.34;;;-1.25;nan
22096;BME280;24083;55.670;37.568;2022-12-17T04:07:40;99686.75;;;-1.27;nan
22096;BME280;24083;55.670;37.568;2022-12-17T04:11:16;99683.34;;;-1.30;nan
22096;BME280;24083;55.670;37.568;2022-12-17T04:14:26;99680.75;;;-1.33;nan
22096;BME280;24083;55.670;37.568;2022-12-17T04:17:19;99679.91;;;-1.32;nan
22096;BME280;24083;55.670;37.568;2022-12-17T04:21:20;99682.47;;;-1.32;nan
22096;BME280;24083;55.670;37.568;2022-12-17T04:24:11;99692.69;;;-1.32;nan
22096;BME280;24083;55.670;37.568;2022-12-17T04:37:36;99663.75;;;-1.25;nan
22096;BME280;24083;55.670;37.568;2022-12-17T04:40:20;99647.53;;;-1.27;nan
22096;BME280;24083;55.670;37.568;2022-12-17T04:43:06;99645.81;;;-1.30;nan
22096;BME280;24083;55.670;37.568;2022-12-17T04:45:54;99655.16;;;-1.33;nan
22096;BME280;24083;55.670;37.568;2022-12-17T04:48:42;99644.91;;;-1.37;nan
22096;BME280;24083;55.670;37.568;2022-12-17T04:51:29;99648.38;;;-1.31;nan
22096;BME280;24083;55.670;37.568;2022-12-17T04:54:17;99651.81;;;-1.26;nan
22096;BME280;24083;55.670;37.568;2022-12-17T04:57:11;99645.00;;;-1.27;nan
22096;BME280;24083;55.670;37.568;2022-12-17T05:00:13;99634.75;;;-1.27;nan
22096;BME280;24083;55.670;37.568;2022-12-17T05:03:33;99648.41;;;-1.25;nan
22096;BME280;24083;55.670;37.568;2022-12-17T05:06:46;99650.13;;;-1.24;nan
22096;BME280;24083;55.670;37.568;2022-12-17T05:10:27;99650.09;;;-1.26;nan
22096;BME280;24083;55.670;37.568;2022-12-17T05:13:15;99633.91;;;-1.25;nan
22096;BME280;24083;55.670;37.568;2022-12-17T05:16:38;99634.81;;;-1.21;nan
22096;BME280;24083;55.670;37.568;2022-12-17T05:19:23;99627.97;;;-1.22;nan
22096;BME280;24083;55.670;37.568;2022-12-17T05:25:54;99624.59;;;-1.18;nan
22096;BME280;24083;55.670;37.568;2022-12-17T05:28:43;99626.28;;;-1.20;nan
22096;BME280;24083;55.670;37.568;2022-12-17T05:34:44;99630.56;;;-1.19;nan
22096;BME280;24083;55.670;37.568;2022-12-17T05:37:30;99612.63;;;-1.22;nan
22096;BME280;24083;55.670;37.568;2022-12-17T05:40:41;99603.25;;;-1.22;nan
22096;BME280;24083;55.670;37.568;2022-12-17T05:43:34;99613.47;;;-1.23;nan
22096;BME280;24083;55.670;37.568;2022-12-17T05:46:29;99609.22;;;-1.21;nan
22096;BME280;24083;55.670;37.568;2022-12-17T05:49:17;99620.31;;;-1.17;nan
22096;BME280;24083;55.670;37.568;2022-12-17T05:52:29;99612.69;;;-1.16;nan
22096;BME280;24083;55.670;37.568;2022-12-17T05:55:23;99614.41;;;-1.15;nan
22096;BME280;24083;55.670;37.568;2022-12-17T05:58:11;99624.66;;;-1.12;nan
22096;BME280;24083;55.670;37.568;2022-12-17T06:01:52;99621.25;;;-1.11;nan
22096;BME280;24083;55.670;37.568;2022-12-17T06:05:34;99615.31;;;-1.07;nan
22096;BME280;24083;55.670;37.568;2022-12-17T06:09:34;99610.16;;;-1.08;nan
22096;BME280;24083;55.670;37.568;2022-12-17T06:12:28;99605.03;;;-1.08;nan
22096;BME280;24083;55.670;37.568;2022-12-17T06:19:31;99604.22;;;-1.02;nan
22096;BME280;24083;55.670;37.568;2022-12-17T06:22:15;99596.56;;;-1.01;nan
22096;BME280;24083;55.670;37.568;2022-12-17T06:24:59;99599.13;;;-0.99;nan
22096;BME280;24083;55.670;37.568;2022-12-17T06:27:46;99597.41;;;-1.00;nan
22096;BME280;24083;55.670;37.568;2022-12-17T06:31:21;99599.16;;;-0.98;nan
22096;BME280;24083;55.670;37.568;2022-12-17T06:35:13;99602.53;;;-1.00;nan
22096;BME280;24083;55.670;37.568;2022-12-17T06:38:31;99599.13;;;-0.99;nan
22096;BME280;24083;55.670;37.568;2022-12-17T06:41:34;99599.16;;;-0.96;nan
22096;BME280;24083;55.670;37.568;2022-12-17T06:45:19;99592.34;;;-0.94;nan
22096;BME280;24083;55.670;37.568;2022-12-17T06:48:54;99582.13;;;-0.91;nan
22096;BME280;24083;55.670;37.568;2022-12-17T06:56:55;99566.81;;;-0.86;nan
22096;BME280;24083;55.670;37.568;2022-12-17T07:00:35;99583.03;;;-0.84;nan
22096;BME280;24083;55.670;37.568;2022-12-17T07:04:18;99567.69;;;-0.84;nan
22096;BME280;24083;55.670;37.568;2022-12-17T07:08:11;99565.09;;;-0.83;nan
22096;BME280;24083;55.670;37.568;2022-12-17T07:15:50;99554.06;;;-0.74;nan
22096;BME280;24083;55.670;37.568;2022-12-17T07:19:02;99560.91;;;-0.71;nan
22096;BME280;24083;55.670;37.568;2022-12-17T07:28:23;99539.63;;;-0.61;nan
22096;BME280;24083;55.670;37.568;2022-12-17T08:10:57;99497.03;;;-0.19;nan
22096;BME280;24083;55.670;37.568;2022-12-17T08:13:41;99494.47;;;-0.14;nan
22096;BME280;24083;55.670;37.568;2022-12-17T08:16:26;99486.81;;;-0.16;nan
22096;BME280;24083;55.670;37.568;2022-12-17T08:38:21;99484.25;;;0.02;nan
22096;BME280;24083;55.670;37.568;2022-12-17T08:41:06;99479.97;;;0.02;nan
22096;BME280;24083;55.670;37.568;2022-12-17T08:44:55;99464.59;;;0.05;nan
22096;BME280;24083;55.670;37.568;2022-12-17T08:56:02;99452.63;;;0.04;nan
22096;BME280;24083;55.670;37.568;2022-12-17T08:59:03;99444.06;;;0.08;nan
22096;BME280;24083;55.670;37.568;2022-12-17T09:03:01;99440.66;;;0.06;nan
22096;BME280;24083;55.670;37.568;2022-12-17T09:09:28;99449.22;;;0.08;nan
22096;BME280;24083;55.670;37.568;2022-12-17T09:13:24;99445.78;;;0.09;nan
22096;BME280;24083;55.670;37.568;2022-12-17T09:20:11;99433.81;;;0.11;nan
22096;BME280;24083;55.670;37.568;2022-12-17T09:23:46;99443.25;;;0.14;nan
22096;BME280;24083;55.670;37.568;2022-12-17T09:46:26;99432.97;;;0.19;nan
22096;BME280;24083;55.670;37.568;2022-12-17T09:49:45;99434.69;;;0.23;nan
22096;BME280;24083;55.670;37.568;2022-12-17T09:53:36;99427.00;;;0.23;nan
22096;BME280;24083;55.670;37.568;2022-12-17T10:05:26;99413.31;;;0.30;nan
22096;BME280;24083;55.670;37.568;2022-12-17T10:17:38;99415.00;;;0.40;nan
22096;BME280;24083;55.670;37.568;2022-12-17T10:36:31;99399.59;;;0.47;nan
22096;BME280;24083;55.670;37.568;2022-12-17T10:39:23;99410.69;;;0.50;nan
22096;BME280;24083;55.670;37.568;2022-12-17T10:42:43;99414.13;;;0.49;nan
22096;BME280;24083;55.670;37.568;2022-12-17T10:58:03;99380.75;;;0.57;nan
22096;BME280;24083;55.670;37.568;2022-12-17T11:09:23;99379.06;;;0.53;nan
22096;BME280;24083;55.670;37.568;2022-12-17T12:16:44;99363.72;;;0.37;nan
22096;BME280;24083;55.670;37.568;2022-12-17T12:19:45;99354.31;;;0.39;nan
22096;BME280;24083;55.670;37.568;2022-12-17T13:26:45;99356.06;;;0.20;nan
22096;BME280;24083;55.670;37.568;2022-12-17T13:29:37;99356.06;;;0.20;nan
22096;BME280;24083;55.670;37.568;2022-12-17T13:41:44;99333.81;;;0.27;nan
22096;BME280;24083;55.670;37.568;2022-12-17T13:51:32;99319.28;;;0.29;nan
22096;BME280;24083;55.670;37.568;2022-12-17T13:54:15;99319.28;;;0.26;nan
22096;BME280;24083;55.670;37.568;2022-12-17T14:11:10;99297.06;;;0.25;nan
22096;BME280;24083;55.670;37.568;2022-12-17T14:13:58;99293.66;;;0.26;nan
22096;BME280;24083;55.670;37.568;2022-12-17T14:22:34;99307.31;;;0.28;nan
22096;BME280;24083;55.670;37.568;2022-12-17T14:26:00;99305.63;;;0.27;nan
22096;BME280;24083;55.670;37.568;2022-12-17T14:28:32;99308.16;;;0.28;nan
22096;BME280;24083;55.670;37.568;2022-12-17T14:31:24;99300.47;;;0.30;nan
22096;BME280;24083;55.670;37.568;2022-12-17T14:34:17;99298.75;;;0.32;nan
22096;BME280;24083;55.670;37.568;2022-12-17T14:37:28;99300.47;;;0.33;nan
22096;BME280;24083;55.670;37.568;2022-12-17T14:40:13;99304.72;;;0.36;nan
22096;BME280;24083;55.670;37.568;2022-12-17T14:53:38;99299.59;;;0.34;nan
22096;BME280;24083;55.670;37.568;2022-12-17T14:56:38;99293.63;;;0.35;nan
22096;BME280;24083;55.670;37.568;2022-12-17T15:31:13;99201.31;;;0.32;nan
22096;BME280;24083;55.670;37.568;2022-12-17T15:33:40;99204.75;;;0.31;nan
22096;BME280;24083;55.670;37.568;2022-12-17T15:36:06;99211.56;;;0.32;nan
22096;BME280;24083;55.670;37.568;2022-12-17T15:38:38;99220.13;;;0.31;nan
22096;BME280;24083;55.670;37.568;2022-12-17T15:41:06;99237.22;;;0.32;nan
22096;BME280;24083;55.670;37.568;2022-12-17T15:43:56;99238.09;;;0.26;nan
22096;BME280;24083;55.670;37.568;2022-12-17T15:49:44;99235.53;;;0.28;nan
22096;BME280;24083;55.670;37.568;2022-12-17T15:52:14;99232.97;;;0.25;nan
22096;BME280;24083;55.670;37.568;2022-12-17T15:54:47;99227.00;;;0.26;nan
22096;BME280;24083;55.670;37.568;2022-12-17T15:57:18;99234.69;;;0.26;nan
22096;BME280;24083;55.670;37.568;2022-12-17T15:59:46;99250.91;;;0.25;nan
22096;BME280;24083;55.670;37.568;2022-12-17T16:06:29;99245.81;;;0.22;nan
22096;BME280;24083;55.670;37.568;2022-12-17T16:08:55;99245.81;;;0.22;nan
22096;BME280;24083;55.670;37.568;2022-12-17T16:11:23;99241.53;;;0.22;nan
22096;BME280;24083;55.670;37.568;2022-12-17T16:13:52;99233.84;;;0.24;nan
22096;BME280;24083;55.670;37.568;2022-12-17T16:16:20;99227.88;;;0.20;nan
22096;BME280;24083;55.670;37.568;2022-12-17T16:18:46;99248.41;;;0.17;nan
22096;BME280;24083;55.670;37.568;2022-12-17T16:24:30;99227.88;;;0.17;nan
22096;BME280;24083;55.670;37.568;2022-12-17T16:26:56;99215.06;;;0.16;nan
22096;BME280;24083;55.670;37.568;2022-12-17T16:29:21;99221.06;;;0.16;nan
22096;BME280;24083;55.670;37.568;2022-12-17T16:31:50;99230.44;;;0.16;nan
22096;BME280;24083;55.670;37.568;2022-12-17T16:34:16;99230.44;;;0.19;nan
22096;BME280;24083;55.670;37.568;2022-12-17T16:36:45;99223.59;;;0.18;nan
22096;BME280;24083;55.670;37.568;2022-12-17T16:39:15;99206.50;;;0.20;nan
22096;BME280;24083;55.670;37.568;2022-12-17T16:41:43;99189.41;;;0.19;nan
22096;BME280;24083;55.670;37.568;2022-12-17T16:44:11;99209.91;;;0.19;nan
22096;BME280;24083;55.670;37.568;2022-12-17T16:46:40;99223.59;;;0.18;nan
22096;BME280;24083;55.670;37.568;2022-12-17T16:49:11;99227.00;;;0.20;nan
22096;BME280;24083;55.670;37.568;2022-12-17T16:51:56;99237.25;;;0.20;nan
22096;BME280;24083;55.670;37.568;2022-12-17T16:54:25;99237.25;;;0.20;nan
22096;BME280;24083;55.670;37.568;2022-12-17T16:56:52;99240.69;;;0.19;nan
22096;BME280;24083;55.670;37.568;2022-12-17T16:59:18;99225.31;;;0.19;nan
22096;BME280;24083;55.670;37.568;2022-12-17T17:01:46;99227.03;;;0.17;nan
22096;BME280;24083;55.670;37.568;2022-12-17T17:04:13;99223.59;;;0.18;nan
22096;BME280;24083;55.670;37.568;2022-12-17T17:06:43;99203.09;;;0.18;nan
22096;BME280;24083;55.670;37.568;2022-12-17T17:09:13;99203.09;;;0.18;nan
22096;BME280;24083;55.670;37.568;2022-12-17T17:11:39;99196.25;;;0.17;nan
22096;BME280;24083;55.670;37.568;2022-12-17T17:14:06;99188.56;;;0.18;nan
22096;BME280;24083;55.670;37.568;2022-12-17T17:16:38;99186.00;;;0.13;nan
22096;BME280;24083;55.670;37.568;2022-12-17T17:19:04;99162.13;;;0.08;nan
22096;BME280;24083;55.670;37.568;2022-12-17T17:21:38;99162.09;;;0.11;nan
22096;BME280;24083;55.670;37.568;2022-12-17T17:24:12;99150.16;;;0.07;nan
22096;BME280;24083;55.670;37.568;2022-12-17T17:27:11;99153.56;;;0.06;nan
22096;BME280;24083;55.670;37.568;2022-12-17T17:29:37;99137.34;;;0.09;nan
22096;BME280;24083;55.670;37.568;2022-12-17T17:32:04;99146.75;;;0.05;nan
22096;BME280;24083;55.670;37.568;2022-12-17T17:34:32;99143.34;;;0.03;nan
22096;BME280;24083;55.670;37.568;2022-12-17T17:36:59;99146.75;;;0.05;nan
22096;BME280;24083;55.670;37.568;2022-12-17T17:39:26;99149.31;;;0.05;nan
22096;BME280;24083;55.670;37.568;2022-12-17T17:41:53;99145.88;;;0.06;nan
22096;BME280;24083;55.670;37.568;2022-12-17T17:44:19;99150.16;;;0.07;nan
22096;BME280;24083;55.670;37.568;2022-12-17T17:46:46;99133.06;;;0.06;nan
22096;BME280;24083;55.670;37.568;2022-12-17T17:52:29;99135.66;;;0.03;nan
22096;BME280;24083;55.670;37.568;2022-12-17T17:54:55;99123.69;;;0.04;nan
22096;BME280;24083;55.670;37.568;2022-12-17T17:57:25;99109.22;;;-0.02;nan
22096;BME280;24083;55.670;37.568;2022-12-17T18:00:05;99115.16;;;0.03;nan
22096;BME280;24083;55.670;37.568;2022-12-17T18:06:02;99121.97;;;0.07;nan
22096;BME280;24083;55.670;37.568;2022-12-17T18:12:04;99128.84;;;0.01;nan
22096;BME280;24083;55.670;37.568;2022-12-17T18:14:51;99128.00;;;0.00;nan
22096;BME280;24083;55.670;37.568;2022-12-17T18:21:32;99121.19;;;-0.01;nan
22096;BME280;24083;55.670;37.568;2022-12-17T18:25:33;99129.75;;;-0.05;nan
22096;BME280;24083;55.670;37.568;2022-12-17T18:27:58;99116.06;;;-0.04;nan
22096;BME280;24083;55.670;37.568;2022-12-17T18:53:42;99105.84;;;-0.10;nan
22096;BME280;24083;55.670;37.568;2022-12-17T18:59:29;99090.47;;;-0.10;nan
22096;BME280;24083;55.670;37.568;2022-12-17T19:02:26;99078.50;;;-0.11;nan
22096;BME280;24083;55.670;37.568;2022-12-17T19:18:04;99052.94;;;-0.24;nan
22096;BME280;24083;55.670;37.568;2022-12-17T19:24:49;99054.66;;;-0.23;nan
22096;BME280;24083;55.670;37.568;2022-12-17T19:30:21;99058.09;;;-0.27;nan
22096;BME280;24083;55.670;37.568;2022-12-17T19:46:56;99035.88;;;-0.28;nan
22096;BME280;24083;55.670;37.568;2022-12-17T19:49:22;99038.47;;;-0.29;nan
22096;BME280;24083;55.670;37.568;2022-12-17T19:55:05;99041.84;;;-0.23;nan
22096;BME280;24083;55.670;37.568;2022-12-17T19:57:43;99029.03;;;-0.23;nan
22096;BME280;24083;55.670;37.568;2022-12-17T20:07:28;98996.56;;;-0.21;nan
22096;BME280;24083;55.670;37.568;2022-12-17T20:10:00;98997.41;;;-0.23;nan
22096;BME280;24083;55.670;37.568;2022-12-17T20:12:51;98996.56;;;-0.18;nan
22096;BME280;24083;55.670;37.568;2022-12-17T20:15:47;98996.53;;;-0.14;nan
22096;BME280;24083;55.670;37.568;2022-12-17T20:18:35;98995.72;;;-0.20;nan
22096;BME280;24083;55.670;37.568;2022-12-17T20:25:01;98976.88;;;-0.14;nan
22096;BME280;24083;55.670;37.568;2022-12-17T20:27:57;98961.53;;;-0.17;nan
22096;BME280;24083;55.670;37.568;2022-12-17T20:30:23;98960.66;;;-0.16;nan
22096;BME280;24083;55.670;37.568;2022-12-17T20:33:36;98960.66;;;-0.11;nan
22096;BME280;24083;55.670;37.568;2022-12-17T20:36:20;98952.13;;;-0.17;nan
22096;BME280;24083;55.670;37.568;2022-12-17T20:38:47;98948.84;;;-0.37;nan
22096;BME280;24083;55.670;37.568;2022-12-17T20:41:24;98949.66;;;-0.27;nan
22096;BME280;24083;55.670;37.568;2022-12-17T21:00:27;98896.72;;;-0.28;nan
22096;BME280;24083;55.670;37.568;2022-12-17T21:02:53;98900.97;;;-0.29;nan
22096;BME280;24083;55.670;37.568;2022-12-17T21:08:36;98895.03;;;-0.34;nan
22096;BME280;24083;55.670;37.568;2022-12-17T21:11:03;98874.56;;;-0.33;nan
22096;BME280;24083;55.670;37.568;2022-12-17T21:13:30;98877.94;;;-0.29;nan
22096;BME280;24083;55.670;37.568;2022-12-17T21:15:58;98875.47;;;-0.45;nan
22096;BME280;24083;55.670;37.568;2022-12-17T21:18:25;98862.56;;;-0.29;nan
22096;BME280;24083;55.670;37.568;2022-12-17T21:21:09;98861.78;;;-0.40;nan
22096;BME280;24083;55.670;37.568;2022-12-17T21:23:36;98849.81;;;-0.38;nan
22096;BME280;24083;55.670;37.568;2022-12-17T21:26:30;98828.59;;;-0.51;nan
22096;BME280;24083;55.670;37.568;2022-12-17T21:29:01;98831.06;;;-0.40;nan
22096;BME280;24083;55.670;37.568;2022-12-17T21:31:32;98817.38;;;-0.36;nan
22096;BME280;24083;55.670;37.568;2022-12-17T21:34:26;98809.72;;;-0.38;nan
22096;BME280;24083;55.670;37.568;2022-12-17T21:36:53;98809.88;;;-0.60;nan
22096;BME280;24083;55.670;37.568;2022-12-17T21:43:22;98790.97;;;-0.43;nan
22096;BME280;24083;55.670;37.568;2022-12-17T21:45:55;98778.22;;;-0.51;nan
22096;BME280;24083;55.670;37.568;2022-12-17T21:48:22;98778.16;;;-0.45;nan
22096;BME280;24083;55.670;37.568;2022-12-17T21:50:57;98783.34;;;-0.51;nan
22096;BME280;24083;55.670;37.568;2022-12-17T21:56:48;98773.94;;;-0.47;nan
22096;BME280;24083;55.670;37.568;2022-12-17T21:59:19;98779.94;;;-0.53;nan
22096;BME280;24083;55.670;37.568;2022-12-17T22:01:45;98773.06;;;-0.48;nan
22096;BME280;24083;55.670;37.568;2022-12-17T22:04:13;98778.28;;;-0.54;nan
22096;BME280;24083;55.670;37.568;2022-12-17T22:06:42;98785.25;;;-0.75;nan
22096;BME280;24083;55.670;37.568;2022-12-17T22:09:08;98774.94;;;-0.65;nan
22096;BME280;24083;55.670;37.568;2022-12-17T22:11:43;98776.63;;;-0.61;nan
22096;BME280;24083;55.670;37.568;2022-12-17T22:14:13;98763.84;;;-0.66;nan
22096;BME280;24083;55.670;37.568;2022-12-17T22:16:43;98761.22;;;-0.55;nan
22096;BME280;24083;55.670;37.568;2022-12-17T22:19:27;98756.13;;;-0.58;nan
22096;BME280;24083;55.670;37.568;2022-12-17T22:21:56;98757.78;;;-0.54;nan
22096;BME280;24083;55.670;37.568;2022-12-17T22:27:47;98734.00;;;-0.68;nan
22096;BME280;24083;55.670;37.568;2022-12-17T22:30:22;98724.53;;;-0.58;nan
22096;BME280;24083;55.670;37.568;2022-12-17T22:33:37;98730.66;;;-0.73;nan
22096;BME280;24083;55.670;37.568;2022-12-17T22:42:51;98692.97;;;-0.59;nan
22096;BME280;24083;55.670;37.568;2022-12-17T22:45:39;98698.00;;;-0.53;nan
22096;BME280;24083;55.670;37.568;2022-12-17T22:48:10;98695.50;;;-0.56;nan
22096;BME280;24083;55.670;37.568;2022-12-17T22:50:38;98687.03;;;-0.64;nan
22096;BME280;24083;55.670;37.568;2022-12-17T22:53:04;98676.78;;;-0.63;nan
22096;BME280;24083;55.670;37.568;2022-12-17T22:55:38;98657.22;;;-0.68;nan
22096;BME280;24083;55.670;37.568;2022-12-17T22:58:03;98664.88;;;-0.65;nan
22096;BME280;24083;55.670;37.568;2022-12-17T23:00:34;98664.97;;;-0.78;nan
22096;BME280;24083;55.670;37.568;2022-12-17T23:03:02;98662.66;;;-1.06;nan
22096;BME280;24083;55.670;37.568;2022-12-17T23:05:28;98661.59;;;-0.80;nan
22096;BME280;24083;55.670;37.568;2022-12-17T23:07:56;98649.59;;;-0.75;nan
22096;BME280;24083;55.670;37.568;2022-12-17T23:10:41;98635.13;;;-0.79;nan
22096;BME280;24083;55.670;37.568;2022-12-17T23:13:07;98643.56;;;-0.69;nan
22096;BME280;24083;55.670;37.568;2022-12-17T23:15:34;98634.91;;;-0.57;nan
22096;BME280;24083;55.670;37.568;2022-12-17T23:18:12;98624.72;;;-0.60;nan
22096;BME280;24083;55.670;37.568;2022-12-17T23:20:38;98612.75;;;-0.58;nan
22096;BME280;24083;55.670;37.568;2022-12-17T23:23:06;98614.41;;;-0.54;nan
22096;BME280;24083;55.670;37.568;2022-12-17T23:28:59;98603.41;;;-0.62;nan
22096;BME280;24083;55.670;37.568;2022-12-17T23:31:30;98597.47;;;-0.67;nan
22096;BME280;24083;55.670;37.568;2022-12-17T23:34:21;98598.41;;;-0.75;nan
22096;BME280;24083;55.670;37.568;2022-12-17T23:37:12;98592.50;;;-0.80;nan
22096;BME280;24083;55.670;37.568;2022-12-17T23:39:50;98588.94;;;-0.66;nan
22096;BME280;24083;55.670;37.568;2022-12-17T23:45:14;98582.63;;;-1.18;nan
22096;BME280;24083;55.670;37.568;2022-12-17T23:47:49;98575.69;;;-1.06;nan
22096;BME280;24083;55.670;37.568;2022-12-17T23:50:15;98563.69;;;-1.00;nan
22096;BME280;24083;55.670;37.568;2022-12-17T23:52:47;98562.22;;;-1.23;nan
22096;BME280;24083;55.670;37.568;2022-12-17T23:55:13;98560.38;;;-1.09;nan
22096;BME280;24083;55.670;37.568;2022-12-17T23:57:39;98553.38;;;-0.91;nan
